Accueil
METAR-TAF:

METAR-TAF

Aéroports :

Aéroport de Barcelone-El Prat

Barcelone, Espagne

latitude: 41-17N, longitude: 002-04E, altitude: 4 m

Observation

Le bulletin a été fait il y a 39 minutes, à 22:00 UTC
Vent 21 kt de nord-est
Température 17°C
Humidité 52%
Pression 1022 hPa
Visibilité 10 km ou plus
Quelques nuages à une hauteur de 3000 ft

METAR: LEBL 192200Z 05021KT 9999 FEW030 17/07 Q1022 NOSIG

Heure: 00:39 (22:39 UTC)

Prévision

Le bulletin a été fait il y a 5 heures et 39 minutes, à 17:00 UTC
Prévision valable du 19 à 18 UTC au 20 à 18 UTC
Vent 18 kt de est/nord-est
Visibilité 10 km ou plus
Nuages épars à une hauteur de 1500 ft
Temporairement
du 19 à 18 UTC au 20 à 18 UTC
Vent 24 kt de est/nord-est avec des rafales jusqu'à 36 kt

TAF: LEBL 191700Z 1918/2018 06018KT 9999 SCT015 TX19/2012Z TN15/2006Z TEMPO 1918/2018 06024G36KT

Observations et prévisions météorologiques de plus de 4000 aéroports (messages METAR et TAF).

Les stations disponibles sont représentées par des disques jaunes et rouges sur la carte.

Passer la souris dessus pour voir le nom de la station.

Cliquer dessus pour voir les observations et prévisions météorologiques.

Pour changer de carte: cliquez sur les boutons verts avec une croix noire pour zoomer, sur le bouton vert avec un tiret pour effectuer un zoom arrière, ou sur les flèches vertes pour les cartes adjacentes.


METAR-TAF: